Time;durP1;ratioP1;P1;durP2;ratioP2;P2;SDS_P1;SDS_P2;PMS_P1;PMS_P2;Temp;Humidity;BMP_temperature;BMP_pressure;BME280_temperature;BME280_humidity;BME280_pressure;Samples;Min_cycle;Max_cycle;Signal;HPM_P1;HPM_P2
2023/03/27 00:01:21;;;;;;;5.18;2.50;;;;;;;8.20;100.00;97922.34;5051257;28;20025;-69
2023/03/27 00:03:48;;;;;;;5.00;2.47;;;;;;;8.25;100.00;97796.44;5049205;28;20522;-69
2023/03/27 00:06:15;;;;;;;5.85;2.30;;;;;;;8.47;100.00;97738.69;5050488;28;20056;-69
2023/03/27 00:08:41;;;;;;;4.75;2.60;;;;;;;8.44;100.00;97602.16;5050793;28;20029;-69
2023/03/27 00:11:07;;;;;;;4.07;2.60;;;;;;;8.48;100.00;97374.97;5050702;28;20411;-70
2023/03/27 00:13:34;;;;;;;4.47;2.85;;;;;;;8.66;100.00;97219.38;5050581;28;20021;-70
2023/03/27 00:15:59;;;;;;;4.72;2.53;;;;;;;8.53;100.00;97049.78;5050612;28;20029;-69
2023/03/27 00:18:27;;;;;;;5.15;2.78;;;;;;;8.82;100.00;96969.28;5050439;28;20449;-69
2023/03/27 00:20:52;;;;;;;3.40;2.30;;;;;;;9.02;100.00;96962.81;5050657;28;20029;-69
2023/03/27 00:23:21;;;;;;;4.57;2.40;;;;;;;8.83;100.00;96947.31;5050578;28;20099;-69
2023/03/27 00:25:48;;;;;;;4.32;2.00;;;;;;;9.08;100.00;96998.69;5050382;28;20037;-70
2023/03/27 00:28:18;;;;;;;3.35;2.20;;;;;;;9.00;100.00;96914.81;5050607;28;20478;-72
2023/03/27 00:30:44;;;;;;;3.08;2.10;;;;;;;8.71;100.00;96856.09;5050493;28;20013;-70
2023/03/27 00:33:11;;;;;;;3.35;2.00;;;;;;;9.14;100.00;96893.56;5050287;28;20037;-69
2023/03/27 00:35:37;;;;;;;3.92;2.45;;;;;;;9.14;100.00;96901.97;5050777;28;20029;-68
2023/03/27 00:38:02;;;;;;;4.68;2.20;;;;;;;9.29;100.00;96890.72;5050568;28;20029;-69
2023/03/27 00:40:28;;;;;;;2.90;2.20;;;;;;;9.38;100.00;96884.19;5049368;28;20029;-70
2023/03/27 00:42:56;;;;;;;2.47;1.90;;;;;;;8.60;100.00;96866.16;5050197;28;20071;-69
2023/03/27 00:45:32;;;;;;;4.20;2.20;;;;;;;8.66;100.00;96842.94;5050788;28;20052;-70
2023/03/27 00:48:07;;;;;;;3.47;2.00;;;;;;;8.90;100.00;96845.47;5047965;28;20427;-70
2023/03/27 00:50:38;;;;;;;3.17;2.10;;;;;;;9.14;100.00;96832.75;5050755;28;20163;-69
2023/03/27 00:53:08;;;;;;;3.33;2.30;;;;;;;8.89;100.00;96788.16;5049009;28;20040;-70
2023/03/27 00:55:40;;;;;;;4.05;2.10;;;;;;;9.06;100.00;96825.72;5048703;28;20124;-70
2023/03/27 00:58:12;;;;;;;3.70;2.40;;;;;;;9.25;100.00;96818.38;5048698;28;20033;-70
2023/03/27 01:00:38;;;;;;;6.47;3.40;;;;;;;9.15;100.00;96832.63;5050547;28;20098;-70
2023/03/27 01:03:06;;;;;;;5.03;2.45;;;;;;;8.93;100.00;96826.72;5048760;28;20480;-70
2023/03/27 01:05:33;;;;;;;4.00;2.15;;;;;;;8.31;100.00;96803.31;5048958;28;20455;-70
2023/03/27 01:07:59;;;;;;;3.28;2.05;;;;;;;8.74;100.00;96799.34;5050500;28;20040;-72
2023/03/27 01:10:42;;;;;;;2.95;2.15;;;;;;;8.90;100.00;96783.88;5049165;28;20029;-69
2023/03/27 01:13:32;;;;;;;4.45;2.15;;;;;;;8.92;100.00;96795.50;5050590;28;20029;-70
2023/03/27 01:16:10;;;;;;;2.85;2.00;;;;;;;8.28;100.00;96709.94;5050336;28;20057;-69
2023/03/27 01:18:45;;;;;;;3.40;2.05;;;;;;;8.73;100.00;96780.81;5053319;28;20035;-70
2023/03/27 01:21:32;;;;;;;3.80;2.20;;;;;;;9.06;100.00;96759.84;5054171;28;20488;-70
2023/03/27 01:24:34;;;;;;;3.17;2.25;;;;;;;8.55;100.00;96784.69;5054047;28;20033;-70
2023/03/27 01:27:15;;;;;;;4.10;2.28;;;;;;;8.17;100.00;96727.56;5052524;28;20031;-70
2023/03/27 01:30:20;;;;;;;4.00;2.40;;;;;;;8.73;100.00;96732.72;5052459;28;20086;-70
2023/03/27 01:33:14;;;;;;;4.72;2.50;;;;;;;8.68;100.00;96732.25;5053326;28;20041;-70
2023/03/27 01:36:03;;;;;;;4.35;2.40;;;;;;;8.93;100.00;96716.09;5052609;28;20056;-69
2023/03/27 01:38:38;;;;;;;4.70;2.70;;;;;;;8.62;100.00;96737.75;5053786;28;20032;-69
2023/03/27 01:41:28;;;;;;;3.00;2.28;;;;;;;8.39;100.00;96737.81;5051469;28;20044;-69
2023/03/27 01:43:56;;;;;;;3.47;2.22;;;;;;;8.94;100.00;96691.53;5053116;28;20532;-70
2023/03/27 01:46:31;;;;;;;3.45;2.38;;;;;;;8.66;100.00;96673.34;5053815;28;20120;-70
2023/03/27 01:49:19;;;;;;;3.47;2.50;;;;;;;8.27;100.00;96705.78;5053698;28;20040;-70
2023/03/27 01:51:59;;;;;;;3.45;2.58;;;;;;;8.08;100.00;96629.59;5032865;28;20029;-69
2023/03/27 01:54:32;;;;;;;3.30;2.28;;;;;;;8.44;100.00;96653.03;5033072;28;20462;-70
2023/03/27 01:57:21;;;;;;;2.85;2.05;;;;;;;8.35;100.00;96661.31;5053270;28;20033;-69
2023/03/27 01:59:55;;;;;;;3.75;2.60;;;;;;;8.36;100.00;96619.91;5051849;28;20028;-70
2023/03/27 02:02:27;;;;;;;3.75;2.45;;;;;;;8.55;100.00;96650.56;5051889;28;20032;-71
2023/03/27 02:04:52;;;;;;;;;;;;;;;8.46;100.00;96684.09;5052318;28;20029;-71
2023/03/27 02:07:25;;;;;;;5.10;2.67;;;;;;;8.47;100.00;96629.25;5051849;28;20330;-69
2023/03/27 02:09:55;;;;;;;3.95;2.63;;;;;;;8.15;100.00;96638.34;5051721;28;20060;-70
2023/03/27 02:12:29;;;;;;;4.07;2.58;;;;;;;8.54;100.00;96648.91;5052939;28;20068;-69
2023/03/27 02:15:03;;;;;;;5.20;2.75;;;;;;;8.24;100.00;96603.06;5051083;28;20094;-69
2023/03/27 02:17:32;;;;;;;4.43;2.95;;;;;;;7.77;100.00;96586.25;5050480;28;20104;-70
2023/03/27 02:20:15;;;;;;;4.82;2.75;;;;;;;7.90;100.00;96594.56;5051770;28;20037;-69
2023/03/27 02:22:47;;;;;;;4.45;3.28;;;;;;;8.08;100.00;96596.72;5053105;28;20029;-70
2023/03/27 02:25:38;;;;;;;4.50;3.15;;;;;;;8.23;100.00;96576.16;5052869;28;20697;-70
2023/03/27 02:28:06;;;;;;;4.28;3.00;;;;;;;8.57;100.00;96544.13;5052399;28;20029;-69
2023/03/27 02:30:45;;;;;;;6.97;3.30;;;;;;;8.73;100.00;96512.44;5051661;28;20041;-70
2023/03/27 02:33:37;;;;;;;6.70;4.05;;;;;;;8.51;100.00;96501.56;5032695;28;20444;-69
2023/03/27 02:36:20;;;;;;;5.45;3.90;;;;;;;8.11;100.00;96422.78;5032541;28;20030;-69
2023/03/27 02:38:55;;;;;;;5.28;4.10;;;;;;;8.28;100.00;96434.97;5043501;28;20056;-69
2023/03/27 02:41:36;;;;;;;8.60;4.18;;;;;;;8.07;100.00;96428.16;5051366;28;20514;-69
2023/03/27 02:44:13;;;;;;;5.88;4.05;;;;;;;7.84;100.00;96381.88;5049196;28;20396;-70
2023/03/27 02:47:11;;;;;;;8.38;4.63;;;;;;;7.58;100.00;96335.81;5052752;28;20029;-70
2023/03/27 02:49:42;;;;;;;5.88;4.60;;;;;;;7.77;100.00;96332.69;5051889;28;20136;-70
2023/03/27 02:52:23;;;;;;;6.32;4.72;;;;;;;7.98;100.00;96269.59;5052312;28;20033;-70
2023/03/27 02:55:05;;;;;;;8.00;5.60;;;;;;;7.89;100.00;96228.91;5050667;28;20044;-69
2023/03/27 02:57:38;;;;;;;7.65;5.13;;;;;;;8.17;100.00;96272.28;5052778;28;20491;-70
2023/03/27 03:00:11;;;;;;;9.27;5.70;;;;;;;8.27;100.00;96246.19;5052392;28;20095;-70
2023/03/27 03:02:38;;;;;;;10.82;6.00;;;;;;;7.60;100.00;96151.22;5051766;28;20124;-69
2023/03/27 03:05:09;;;;;;;9.70;5.10;;;;;;;7.85;100.00;96247.78;5051498;28;20040;-70
2023/03/27 03:07:36;;;;;;;7.05;5.28;;;;;;;7.76;100.00;96235.03;5050246;28;20519;-69
2023/03/27 03:10:04;;;;;;;8.30;5.30;;;;;;;7.47;100.00;96275.16;5052127;28;20549;-69
2023/03/27 03:12:29;;;;;;;7.18;5.47;;;;;;;7.00;100.00;96243.34;5044845;28;20700;-69
2023/03/27 03:14:55;;;;;;;7.35;5.10;;;;;;;7.39;100.00;96269.09;5031311;28;20037;-70
2023/03/27 03:17:20;;;;;;;6.32;5.15;;;;;;;7.43;100.00;96343.69;5038221;28;20498;-71
2023/03/27 03:19:47;;;;;;;7.88;5.93;;;;;;;7.01;100.00;96294.66;5031533;28;20048;-69
2023/03/27 03:22:13;;;;;;;10.07;5.78;;;;;;;7.14;100.00;96385.44;5051399;28;20498;-69
2023/03/27 03:24:40;;;;;;;9.77;6.32;;;;;;;6.95;100.00;97924.38;5051420;28;20033;-71
2023/03/27 03:27:07;;;;;;;7.10;5.25;;;;;;;7.00;100.00;98245.75;5051419;28;20040;-69
2023/03/27 03:29:35;;;;;;;7.57;5.63;;;;;;;6.92;100.00;98621.56;5049965;28;20029;-69
2023/03/27 03:32:04;;;;;;;7.72;5.70;;;;;;;7.07;100.00;99023.63;5049729;28;20033;-71
2023/03/27 03:34:32;;;;;;;8.05;6.05;;;;;;;7.30;100.00;99253.75;5049853;28;20498;-68
2023/03/27 03:36:58;;;;;;;8.07;5.93;;;;;;;7.12;100.00;99320.78;5051640;28;20028;-70
2023/03/27 03:39:23;;;;;;;11.85;6.60;;;;;;;7.57;100.00;99377.75;5051506;28;20454;-71
2023/03/27 03:41:49;;;;;;;12.23;7.80;;;;;;;7.76;100.00;99351.09;5050949;28;20037;-70
2023/03/27 03:44:15;;;;;;;10.68;8.43;;;;;;;8.02;100.00;99415.38;5050332;28;20494;-70
2023/03/27 03:46:40;;;;;;;14.35;9.57;;;;;;;8.01;100.00;99470.22;5049062;28;20041;-71
2023/03/27 03:49:06;;;;;;;13.18;10.55;;;;;;;7.93;100.00;99494.91;5034604;28;20049;-71
2023/03/27 03:51:33;;;;;;;14.82;10.75;;;;;;;7.83;100.00;99559.25;5047363;28;20021;-70
2023/03/27 03:54:00;;;;;;;13.48;9.80;;;;;;;7.52;100.00;99586.13;5032006;28;20113;-71
2023/03/27 03:56:28;;;;;;;13.80;10.40;;;;;;;7.80;100.00;99708.63;5050221;28;20048;-71
2023/03/27 03:58:54;;;;;;;12.43;9.32;;;;;;;7.63;100.00;99733.41;5051117;28;20083;-72
2023/03/27 04:01:21;;;;;;;17.60;10.07;;;;;;;7.68;100.00;99780.53;5048968;28;20029;-72
2023/03/27 04:03:47;;;;;;;14.23;9.98;;;;;;;7.82;100.00;99777.72;5050965;28;20041;-71
2023/03/27 04:06:16;;;;;;;14.77;10.27;;;;;;;7.37;100.00;99755.88;5050460;28;20052;-70
2023/03/27 04:08:42;;;;;;;16.90;11.50;;;;;;;7.65;100.00;99805.03;5048987;28;20502;-71
2023/03/27 04:11:08;;;;;;;17.58;12.50;;;;;;;7.44;100.00;99828.22;5029780;28;20039;-71
2023/03/27 04:13:33;;;;;;;18.05;12.25;;;;;;;7.40;100.00;99859.47;5062994;28;20416;-70
2023/03/27 04:16:00;;;;;;;14.75;11.07;;;;;;;7.22;100.00;99872.41;5030686;28;20029;-71
2023/03/27 04:18:31;;;;;;;15.80;11.32;;;;;;;7.43;100.00;99869.50;5063211;28;20474;-71
2023/03/27 04:20:57;;;;;;;13.17;9.70;;;;;;;7.13;100.00;99893.59;5030921;28;20067;-71
2023/03/27 04:23:29;;;;;;;13.18;10.20;;;;;;;7.28;100.00;99918.66;5030567;28;20647;-71
2023/03/27 04:26:02;;;;;;;12.75;9.85;;;;;;;7.71;100.00;99949.97;5036502;28;20025;-72
2023/03/27 04:28:33;;;;;;;14.82;10.55;;;;;;;7.54;100.00;99915.69;5050531;28;20064;-71
2023/03/27 04:31:05;;;;;;;17.65;11.57;;;;;;;7.43;100.00;100006.91;5050829;28;20033;-71
2023/03/27 04:33:34;;;;;;;18.67;13.57;;;;;;;7.69;100.00;99997.22;5050401;28;20119;-71
2023/03/27 04:36:00;;;;;;;19.02;13.80;;;;;;;7.62;100.00;99967.00;5048865;28;20044;-70
2023/03/27 04:38:27;;;;;;;20.83;12.95;;;;;;;8.66;100.00;99986.19;5048702;28;20035;-69
2023/03/27 04:40:53;;;;;;;20.83;15.23;;;;;;;8.50;100.00;99992.41;5050019;28;20017;-68
2023/03/27 04:43:20;;;;;;;23.17;16.13;;;;;;;7.81;100.00;99989.44;5045707;28;20025;-70
2023/03/27 04:45:47;;;;;;;24.60;16.10;;;;;;;8.21;100.00;100027.56;5049179;28;20124;-70
2023/03/27 04:48:13;;;;;;;23.48;16.55;;;;;;;7.71;100.00;99985.38;5050443;28;20045;-69
2023/03/27 04:50:39;;;;;;;23.50;15.63;;;;;;;7.97;100.00;100000.13;5048959;28;20032;-70
2023/03/27 04:53:07;;;;;;;21.67;15.13;;;;;;;8.16;100.00;100044.50;5051798;28;20123;-70
2023/03/27 04:55:36;;;;;;;23.05;15.00;;;;;;;8.08;100.00;100048.06;5053954;28;20036;-70
2023/03/27 04:58:04;;;;;;;20.98;15.02;;;;;;;8.07;100.00;100042.16;5052461;28;20036;-70
2023/03/27 05:00:29;;;;;;;23.38;15.23;;;;;;;8.07;100.00;100016.84;5051957;28;20025;-71
2023/03/27 05:02:55;;;;;;;26.65;15.82;;;;;;;8.02;100.00;100015.25;5053201;28;20037;-70
2023/03/27 05:05:21;;;;;;;24.38;17.67;;;;;;;8.08;100.00;100026.09;5052355;28;20033;-70
2023/03/27 05:07:49;;;;;;;27.02;18.17;;;;;;;8.20;100.00;100042.78;5054437;28;20025;-70
2023/03/27 05:10:16;;;;;;;27.40;18.83;;;;;;;8.22;100.00;100043.59;5053557;28;20640;-70
2023/03/27 05:12:52;;;;;;;28.50;19.38;;;;;;;8.14;100.00;100023.44;5042896;28;20022;-69
2023/03/27 05:15:18;;;;;;;26.95;18.45;;;;;;;8.08;100.00;99974.66;5033206;28;20083;-69
2023/03/27 05:17:45;;;;;;;27.30;18.75;;;;;;;8.51;100.00;100026.19;5034191;28;20103;-70
2023/03/27 05:20:18;;;;;;;28.42;18.17;;;;;;;8.47;100.00;100012.75;5033884;28;20415;-69
2023/03/27 05:22:44;;;;;;;25.30;17.73;;;;;;;8.26;100.00;99997.13;5033612;28;20032;-70
2023/03/27 05:25:11;;;;;;;24.45;17.52;;;;;;;8.68;100.00;99992.06;5034039;28;20034;-71
2023/03/27 05:27:38;;;;;;;22.98;16.83;;;;;;;9.04;100.00;100002.31;5034152;28;20408;-69
2023/03/27 05:30:05;;;;;;;28.48;18.20;;;;;;;8.80;100.00;100011.25;5032247;28;20041;-69
2023/03/27 05:32:31;;;;;;;28.40;18.70;;;;;;;8.50;100.00;99979.75;5033214;28;20048;-70
2023/03/27 05:34:56;;;;;;;24.63;17.70;;;;;;;8.53;100.00;99982.25;5033632;28;20033;-70
2023/03/27 05:37:22;;;;;;;30.20;19.92;;;;;;;8.31;100.00;99937.94;5032096;28;20036;-69
2023/03/27 05:39:47;;;;;;;33.50;20.50;;;;;;;8.60;100.00;99955.91;5033489;28;20025;-69
2023/03/27 05:42:13;;;;;;;37.55;23.17;;;;;;;8.94;100.00;100001.66;5033545;28;20067;-69
2023/03/27 05:44:41;;;;;;;30.67;20.80;;;;;;;9.66;100.00;100026.25;5033204;28;20033;-69
2023/03/27 05:47:09;;;;;;;31.52;22.02;;;;;;;9.96;100.00;100023.84;5032196;28;20026;-70
2023/03/27 05:49:35;;;;;;;31.88;20.77;;;;;;;9.49;100.00;100001.28;5033317;28;20021;-71
2023/03/27 05:52:00;;;;;;;33.30;21.33;;;;;;;10.28;100.00;99987.47;5032870;28;20030;-69
2023/03/27 05:54:26;;;;;;;31.83;22.80;;;;;;;10.38;100.00;99986.34;5031669;28;20036;-71
2023/03/27 05:56:51;;;;;;;31.52;23.73;;;;;;;10.37;100.00;100010.94;5040435;28;20025;-70
2023/03/27 05:59:18;;;;;;;31.05;23.27;;;;;;;9.85;100.00;100004.63;5051669;28;20029;-69
2023/03/27 06:01:43;;;;;;;36.72;24.23;;;;;;;10.15;100.00;100016.59;5051614;28;20078;-69
2023/03/27 06:04:09;;;;;;;37.05;25.00;;;;;;;9.60;100.00;99995.09;5051874;28;20121;-69
2023/03/27 06:06:40;;;;;;;36.53;24.77;;;;;;;9.78;100.00;99965.06;5051855;28;20503;-69
2023/03/27 06:09:06;;;;;;;35.05;24.95;;;;;;;9.92;100.00;100016.31;5031638;28;20029;-70
2023/03/27 06:11:32;;;;;;;35.88;25.98;;;;;;;9.74;100.00;100037.06;5033104;28;20036;-70
2023/03/27 06:13:57;;;;;;;37.38;25.80;;;;;;;9.94;100.00;100045.91;5033391;28;20033;-70
2023/03/27 06:16:23;;;;;;;38.90;27.77;;;;;;;10.13;100.00;99998.88;5033198;28;20393;-69
2023/03/27 06:18:48;;;;;;;38.38;27.45;;;;;;;11.10;100.00;100014.78;5031467;28;20091;-70
2023/03/27 06:21:14;;;;;;;41.30;28.88;;;;;;;10.67;100.00;99967.75;5032476;28;20029;-69
2023/03/27 06:23:40;;;;;;;40.38;29.30;;;;;;;11.96;100.00;99981.47;5031168;28;20026;-71
2023/03/27 06:26:06;;;;;;;42.72;31.38;;;;;;;11.96;100.00;100001.88;5030932;28;20503;-69
2023/03/27 06:28:31;;;;;;;45.58;31.02;;;;;;;12.05;100.00;99978.66;5032926;28;20480;-70
2023/03/27 06:30:58;;;;;;;42.45;31.30;;;;;;;11.96;100.00;99942.47;5032723;28;20116;-70
2023/03/27 06:33:24;;;;;;;44.25;32.53;;;;;;;12.80;100.00;99954.69;5031495;28;20124;-70
2023/03/27 06:35:50;;;;;;;46.58;34.40;;;;;;;13.02;100.00;99947.03;5032582;28;20056;-70
2023/03/27 06:38:17;;;;;;;49.38;35.10;;;;;;;12.72;100.00;99918.41;5032220;28;20029;-70
2023/03/27 06:40:44;;;;;;;54.00;38.58;;;;;;;13.17;100.00;99931.19;5031246;28;20381;-71
2023/03/27 06:43:21;;;;;;;52.55;38.83;;;;;;;13.18;100.00;99914.97;5033043;28;20044;-70
2023/03/27 06:45:48;;;;;;;49.17;35.92;;;;;;;12.78;100.00;99877.38;5032340;28;20018;-70
2023/03/27 06:48:15;;;;;;;44.63;34.72;;;;;;;13.91;100.00;99905.09;5032651;28;20080;-70
2023/03/27 06:50:41;;;;;;;43.28;33.30;;;;;;;13.35;100.00;99848.72;5030767;28;20029;-70
2023/03/27 06:53:06;;;;;;;40.70;31.65;;;;;;;13.58;100.00;99804.34;5032380;28;20026;-70
2023/03/27 06:55:33;;;;;;;41.83;31.27;;;;;;;14.52;100.00;99806.88;5030607;28;20091;-71
2023/03/27 06:58:00;;;;;;;39.35;30.38;;;;;;;14.31;100.00;99824.94;5030760;28;20068;-70
2023/03/27 07:00:30;;;;;;;37.42;30.92;;;;;;;14.51;100.00;99771.16;5031984;28;20025;-71
2023/03/27 07:03:01;;;;;;;39.17;30.30;;;;;;;13.90;100.00;99722.81;5032181;28;20100;-70
2023/03/27 07:05:29;;;;;;;39.22;30.50;;;;;;;14.61;100.00;99716.06;5028537;28;20029;-69
2023/03/27 07:07:55;;;;;;;38.40;30.65;;;;;;;14.85;100.00;99648.34;5031817;28;20120;-70
2023/03/27 07:10:23;;;;;;;35.08;28.20;;;;;;;14.27;100.00;99634.16;5030603;28;20033;-70
2023/03/27 07:12:50;;;;;;;35.47;27.70;;;;;;;14.99;100.00;99575.94;5032194;28;20056;-70
2023/03/27 07:15:16;;;;;;;32.03;26.17;;;;;;;15.11;100.00;99575.31;5031479;28;20037;-70
2023/03/27 07:17:43;;;;;;;32.67;25.83;;;;;;;15.76;100.00;99474.34;5031511;28;20029;-70
2023/03/27 07:20:12;;;;;;;31.88;25.77;;;;;;;15.53;100.00;99299.69;5030418;28;20514;-69
2023/03/27 07:22:41;;;;;;;30.95;26.17;;;;;;;15.35;100.00;99182.13;5031773;28;20029;-70
2023/03/27 07:25:08;;;;;;;28.25;23.33;;;;;;;16.22;100.00;99094.53;5031522;28;20026;-70
2023/03/27 07:27:33;;;;;;;28.60;24.45;;;;;;;16.03;100.00;98852.25;5031278;28;20022;-70
2023/03/27 07:30:00;;;;;;;29.50;24.98;;;;;;;15.65;100.00;98561.97;5031260;28;20415;-70
2023/03/27 07:32:28;;;;;;;28.10;23.50;;;;;;;16.32;100.00;98377.38;5031492;28;20037;-70
2023/03/27 07:34:55;;;;;;;25.58;21.00;;;;;;;16.44;100.00;98122.50;5031590;28;20129;-70
2023/03/27 07:37:21;;;;;;;27.30;23.17;;;;;;;16.42;100.00;97593.47;5033878;28;20032;-70
2023/03/27 07:39:47;;;;;;;25.30;21.20;;;;;;;16.83;100.00;97268.19;5049218;28;20025;-70
2023/03/27 07:42:12;;;;;;;24.55;21.88;;;;;;;16.63;100.00;96916.13;5045083;28;20397;-70
2023/03/27 07:44:37;;;;;;;28.77;23.75;;;;;;;16.31;100.00;95526.78;5030908;28;20383;-71
2023/03/27 07:47:03;;;;;;;31.08;21.67;;;;;;;16.28;100.00;95571.50;5030062;28;20029;-70
2023/03/27 07:49:28;;;;;;;28.98;20.63;;;;;;;16.98;100.00;95532.88;5029978;28;20522;-71
2023/03/27 07:51:54;;;;;;;31.42;21.30;;;;;;;16.79;100.00;95436.16;5031178;28;20041;-69
2023/03/27 07:54:20;;;;;;;23.02;18.88;;;;;;;16.88;100.00;95511.91;5030987;28;20029;-70
2023/03/27 07:56:47;;;;;;;22.55;18.27;;;;;;;17.12;100.00;95470.34;5029501;28;20045;-71
2023/03/27 07:59:15;;;;;;;25.67;20.85;;;;;;;16.79;100.00;95491.78;5046121;28;20407;-70
2023/03/27 08:01:41;;;;;;;24.10;19.38;;;;;;;17.51;100.00;95366.16;5029630;28;20040;-70
2023/03/27 08:04:07;;;;;;;24.05;20.45;;;;;;;17.08;100.00;95412.72;5030990;28;20148;-70
2023/03/27 08:06:38;;;;;;;26.35;21.60;;;;;;;16.87;100.00;95443.66;5030632;28;20618;-69
2023/03/27 08:09:04;;;;;;;25.00;20.52;;;;;;;16.68;100.00;95408.47;5030470;28;20037;-70
2023/03/27 08:11:30;;;;;;;24.27;19.42;;;;;;;18.14;100.00;95360.28;5030426;28;20399;-70
2023/03/27 08:13:55;;;;;;;23.65;18.92;;;;;;;18.20;100.00;95328.63;5029503;28;20025;-71
2023/03/27 08:16:23;;;;;;;25.70;20.48;;;;;;;17.36;100.00;95320.13;5031070;28;20037;-69
2023/03/27 08:18:49;;;;;;;25.65;19.58;;;;;;;17.42;100.00;95355.28;5030559;28;20029;-70
2023/03/27 08:21:14;;;;;;;22.55;19.20;;;;;;;18.50;100.00;95270.53;5030610;28;20087;-69
2023/03/27 08:23:41;;;;;;;22.50;18.27;;;;;;;18.95;100.00;95328.63;5030655;28;20041;-70
2023/03/27 08:26:07;;;;;;;20.30;17.98;;;;;;;18.22;100.00;95369.53;5028848;28;20034;-71
2023/03/27 08:28:35;;;;;;;22.33;19.58;;;;;;;18.60;100.00;95354.97;5030649;28;20129;-70
2023/03/27 08:31:08;;;;;;;16.50;13.18;;;;;;;18.46;100.00;95304.59;5028806;28;20100;-70
2023/03/27 08:33:34;;;;;;;14.45;12.00;;;;;;;19.89;100.00;95275.03;5030213;28;20034;-70
2023/03/27 08:35:59;;;;;;;14.73;12.10;;;;;;;19.04;100.00;95427.72;5030348;28;20029;-70
2023/03/27 08:38:27;;;;;;;13.38;10.82;;;;;;;18.49;100.00;95441.25;5030010;28;20045;-68
2023/03/27 08:40:57;;;;;;;12.25;10.57;;;;;;;19.24;100.00;95419.06;5028870;28;20033;-70
2023/03/27 08:43:43;;;;;;;14.40;12.02;;;;;;;19.89;100.00;95491.53;5062360;28;20030;-71
2023/03/27 08:46:20;;;;;;;11.60;10.05;;;;;;;19.84;100.00;95549.84;5029892;28;20041;-71
2023/03/27 08:48:57;;;;;;;12.88;10.30;;;;;;;19.21;100.00;95604.88;5030473;28;20038;-70
2023/03/27 08:51:33;;;;;;;12.13;10.90;;;;;;;19.68;100.00;95553.75;5028701;28;20029;-71
2023/03/27 08:54:12;;;;;;;11.93;9.45;;;;;;;20.02;100.00;95528.50;5029793;28;20072;-72
2023/03/27 08:56:38;;;;;;;10.30;9.30;;;;;;;20.30;100.00;95568.34;5030848;28;20523;-71
2023/03/27 08:59:10;;;;;;;9.75;8.40;;;;;;;20.82;100.00;95646.31;5030702;28;20021;-70
2023/03/27 09:01:44;;;;;;;14.07;9.02;;;;;;;21.10;100.00;95724.91;5030369;28;20048;-70
2023/03/27 09:04:24;;;;;;;9.57;7.53;;;;;;;20.72;100.00;95789.53;5029071;28;20404;-71
2023/03/27 09:07:03;;;;;;;11.27;7.85;;;;;;;20.27;100.00;95798.31;5030097;28;20563;-69
2023/03/27 09:09:58;;;;;;;10.02;8.05;;;;;;;21.25;100.00;95854.50;5045799;28;20099;-71
2023/03/27 09:12:35;;;;;;;8.90;7.75;;;;;;;20.89;100.00;95856.13;5045576;28;20036;-71
2023/03/27 09:15:11;;;;;;;7.97;7.18;;;;;;;20.77;100.00;95932.66;5030088;28;20124;-71
2023/03/27 09:17:42;;;;;;;9.25;8.30;;;;;;;21.15;100.00;95902.50;5030746;28;20025;-70
2023/03/27 09:20:17;;;;;;;8.60;7.70;;;;;;;20.78;100.00;96012.47;5029968;28;20057;-70
2023/03/27 09:22:46;;;;;;;10.50;8.40;;;;;;;20.55;100.00;95961.34;5029813;28;20062;-70
2023/03/27 09:25:25;;;;;;;10.25;8.95;;;;;;;20.01;100.00;95972.94;5029837;28;20029;-69
2023/03/27 09:27:52;;;;;;;12.88;8.07;;;;;;;19.90;100.00;96023.31;5029874;28;20112;-70
2023/03/27 09:30:26;;;;;;;11.07;7.47;;;;;;;20.34;100.00;95961.59;5030180;28;20116;-70
2023/03/27 09:32:56;;;;;;;12.35;9.60;;;;;;;20.17;100.00;95952.69;5029860;28;20499;-72
2023/03/27 09:35:23;;;;;;;9.43;7.60;;;;;;;19.97;100.00;95994.94;5030071;28;20035;-73
2023/03/27 09:37:57;;;;;;;10.65;8.18;;;;;;;20.06;100.00;96040.19;5046603;28;20114;-69
2023/03/27 09:40:52;;;;;;;9.40;7.97;;;;;;;20.03;100.00;96038.78;5041987;28;20399;-69
2023/03/27 09:43:21;;;;;;;8.32;6.95;;;;;;;19.87;100.00;96037.41;5039649;28;20033;-71
2023/03/27 09:45:48;;;;;;;7.75;5.80;;;;;;;19.76;100.00;96106.78;5052598;28;20028;-70
2023/03/27 09:48:27;;;;;;;9.18;7.30;;;;;;;20.15;100.00;96082.81;5049609;28;20051;-70
2023/03/27 09:50:52;;;;;;;9.68;6.90;;;;;;;19.75;100.00;96053.63;5033658;28;20064;-71
2023/03/27 09:53:22;;;;;;;9.07;6.60;;;;;;;19.95;100.00;96038.22;5033844;28;20057;-71
2023/03/27 09:56:00;;;;;;;9.60;7.72;;;;;;;20.19;100.00;96081.47;5033141;28;20333;-71
2023/03/27 09:58:26;;;;;;;8.25;6.38;;;;;;;20.74;100.00;96099.06;5033637;28;20068;-70
2023/03/27 10:01:12;;;;;;;9.00;6.55;;;;;;;20.76;100.00;96140.19;5032362;28;20072;-71
2023/03/27 10:03:50;;;;;;;8.63;5.78;;;;;;;20.43;100.00;96106.66;5031877;28;20030;-71
2023/03/27 10:07:01;;;;;;;9.15;6.05;;;;;;;21.32;100.00;96223.94;5032835;28;20168;-70
2023/03/27 10:09:29;;;;;;;16.65;7.13;;;;;;;20.56;100.00;96225.38;5010894;28;20137;-71
2023/03/27 10:12:08;;;;;;;10.85;6.85;;;;;;;20.41;100.00;96261.69;5029561;28;20044;-71
2023/03/27 10:14:36;;;;;;;7.18;5.85;;;;;;;20.43;100.00;96235.66;5032866;28;20033;-71
2023/03/27 10:17:03;;;;;;;8.05;5.90;;;;;;;20.24;100.00;96201.13;5032733;28;20480;-71
2023/03/27 10:19:40;;;;;;;8.70;5.47;;;;;;;20.16;100.00;96223.69;5031743;28;20029;-71
2023/03/27 10:22:26;;;;;;;9.15;6.25;;;;;;;20.06;100.00;96212.94;5031162;28;20036;-71
2023/03/27 10:24:52;;;;;;;11.00;6.60;;;;;;;19.88;100.00;96180.78;5030966;28;20030;-71
2023/03/27 10:27:23;;;;;;;12.10;8.50;;;;;;;20.05;100.00;96221.66;5032629;28;20072;-72
2023/03/27 10:29:49;;;;;;;7.80;7.00;;;;;;;19.58;100.00;96145.19;5031499;28;20044;-71
2023/03/27 10:32:14;;;;;;;11.80;8.40;;;;;;;19.75;100.00;96110.34;5032248;28;20037;-74
2023/03/27 10:34:52;;;;;;;10.70;7.18;;;;;;;19.98;100.00;96097.91;5030988;28;20029;-71
2023/03/27 10:37:29;;;;;;;7.80;6.43;;;;;;;19.83;100.00;96092.91;5032180;28;20022;-71
2023/03/27 10:39:59;;;;;;;10.00;6.13;;;;;;;20.22;100.00;96148.94;5030908;28;20509;-71
2023/03/27 10:42:31;;;;;;;8.38;6.07;;;;;;;20.41;100.00;96152.50;5032691;28;20037;-70
2023/03/27 10:44:57;;;;;;;8.25;6.20;;;;;;;20.30;100.00;96081.66;5031222;28;20025;-71
2023/03/27 10:47:30;;;;;;;10.77;6.30;;;;;;;20.34;100.00;96107.88;5032291;28;20407;-70
2023/03/27 10:50:14;;;;;;;11.50;6.97;;;;;;;21.06;100.00;96071.59;5031342;28;20151;-71
2023/03/27 10:52:42;;;;;;;8.85;6.90;;;;;;;21.11;100.00;96056.31;5030631;28;20494;-70
2023/03/27 10:55:43;;;;;;;11.32;7.15;;;;;;;21.96;100.00;96128.25;5031148;28;20044;-71
2023/03/27 10:58:23;;;;;;;9.05;6.40;;;;;;;21.96;100.00;96187.75;5031047;28;20029;-71
2023/03/27 11:01:00;;;;;;;8.35;6.32;;;;;;;22.36;100.00;96130.34;5030295;28;20484;-71
2023/03/27 11:03:33;;;;;;;10.85;7.05;;;;;;;23.86;100.00;96205.84;5032157;28;20025;-71
2023/03/27 11:06:01;;;;;;;9.80;7.72;;;;;;;22.68;100.00;96277.94;5031828;28;20053;-71
2023/03/27 11:08:37;;;;;;;8.70;7.40;;;;;;;22.05;100.00;96370.19;5032072;28;20045;-71
2023/03/27 11:11:17;;;;;;;8.02;7.18;;;;;;;22.02;100.00;96311.91;5031810;28;20021;-72
2023/03/27 11:13:45;;;;;;;10.18;7.50;;;;;;;21.35;100.00;96365.69;5029286;28;20424;-71
2023/03/27 11:16:27;;;;;;;9.00;7.60;;;;;;;21.68;100.00;96370.81;5032016;28;20039;-71
2023/03/27 11:18:59;;;;;;;10.60;7.20;;;;;;;21.16;100.00;96384.53;5032176;28;20041;-72
2023/03/27 11:21:56;;;;;;;9.60;7.97;;;;;;;21.11;100.00;96350.78;5031635;28;20033;-70
2023/03/27 11:24:39;;;;;;;8.55;7.63;;;;;;;21.17;100.00;96342.22;5026556;28;20045;-71
2023/03/27 11:27:11;;;;;;;11.90;9.15;;;;;;;21.27;100.00;96333.06;5031758;28;20411;-71
2023/03/27 11:29:45;;;;;;;10.57;7.70;;;;;;;21.08;100.00;96322.75;5031688;28;20073;-71
2023/03/27 11:32:46;;;;;;;14.45;9.02;;;;;;;21.24;100.00;96302.47;5030456;28;20086;-70
2023/03/27 11:35:16;;;;;;;18.55;9.75;;;;;;;21.41;100.00;96292.53;5030905;28;20034;-70
2023/03/27 11:37:51;;;;;;;12.75;8.65;;;;;;;21.28;100.00;96316.59;5031442;28;20095;-70
2023/03/27 11:40:22;;;;;;;13.13;8.50;;;;;;;21.27;100.00;96271.06;5031515;28;20021;-71